Time;durP1;ratioP1;P1;durP2;ratioP2;P2;SDS_P1;SDS_P2;PMS_P1;PMS_P2;Temp;Humidity;BMP_temperature;BMP_pressure;BME280_temperature;BME280_humidity;BME280_pressure;Samples;Min_cycle;Max_cycle;Signal;HPM_P1;HPM_P2
2023/04/20 00:02:18;;;;;;;;;;;;;;;;;;;;;
2023/04/20 00:04:57;;;;;;;46.40;42.10;;;;;;;8.76;71.99;100807.34;110248;1281;22295;-80
2023/04/20 00:12:35;;;;;;;;;;;;;;;;;;;;;
2023/04/20 00:16:12;;;;;;;51.10;46.20;;;;;;;8.83;72.13;100808.59;110750;1266;23952;-82
2023/04/20 00:24:52;;;;;;;59.40;53.60;;;;;;;8.67;72.53;100807.05;106593;1280;3220838;-80
2023/04/20 00:27:47;;;;;;;57.70;52.10;;;;;;;8.65;72.43;100803.27;108913;1281;23004;-82
2023/04/20 00:30:27;;;;;;;57.60;52.00;;;;;;;8.62;72.34;100800.38;108957;1282;22000;-80
2023/04/20 00:33:01;;;;;;;56.60;51.00;;;;;;;8.58;72.35;100795.61;109343;1279;21981;-80
2023/04/20 00:35:37;;;;;;;55.70;49.80;;;;;;;8.54;72.42;100789.63;109363;1279;22004;-80
2023/04/20 00:38:11;;;;;;;59.90;54.00;;;;;;;8.54;72.51;100786.54;109102;1279;22460;-82
2023/04/20 00:40:55;;;;;;;62.50;56.10;;;;;;;8.53;72.50;100784.81;109278;1279;21996;-82
2023/04/20 00:43:30;;;;;;;59.70;54.00;;;;;;;8.52;72.67;100785.52;109080;1279;21994;-81
2023/04/20 00:46:04;;;;;;;67.90;60.80;;;;;;;8.53;72.68;100785.67;109263;1279;24348;-81
2023/04/20 00:48:42;;;;;;;66.20;59.00;;;;;;;8.52;72.74;100788.48;109546;1270;21999;-80
2023/04/20 00:51:12;;;;;;;64.60;58.20;;;;;;;8.51;72.71;100783.11;110179;1262;22012;-83
2023/04/20 00:53:46;;;;;;;64.50;58.00;;;;;;;8.51;72.75;100785.38;110874;1262;23668;-80
2023/04/20 00:56:31;;;;;;;62.50;56.00;;;;;;;8.52;72.87;100786.40;110453;1262;21995;-79
2023/04/20 00:59:11;;;;;;;61.30;55.10;;;;;;;8.52;72.94;100782.73;110507;1262;21970;-79
2023/04/20 01:01:51;;;;;;;58.70;52.60;;;;;;;8.50;72.92;100776.19;111195;1255;21963;-81
2023/04/20 01:04:29;;;;;;;62.60;56.40;;;;;;;8.51;73.13;100773.05;111423;1255;22132;-82
2023/04/20 01:07:03;;;;;;;62.30;56.10;;;;;;;8.52;73.25;100770.42;111487;1255;21979;-80
2023/04/20 01:09:46;;;;;;;64.10;57.90;;;;;;;8.53;73.25;100768.49;111575;1255;23361;-80
2023/04/20 01:12:28;;;;;;;61.70;55.60;;;;;;;8.54;73.25;100766.57;111008;1261;22337;-81
2023/04/20 01:14:59;;;;;;;61.80;55.60;;;;;;;8.54;73.22;100765.35;111152;1261;21975;-80
2023/04/20 01:17:38;;;;;;;68.00;61.20;;;;;;;8.53;73.15;100770.41;111089;1261;22397;-79
2023/04/20 01:20:33;;;;;;;63.50;57.10;;;;;;;8.50;73.18;100775.15;110931;1261;23163;-81
2023/04/20 01:23:11;;;;;;;64.60;58.10;;;;;;;8.50;73.17;100775.50;110754;1266;21981;-81
2023/04/20 01:25:59;;;;;;;60.40;54.50;;;;;;;8.51;73.33;100776.86;110450;1266;22000;-81
2023/04/20 01:28:49;;;;;;;62.00;55.70;;;;;;;8.52;73.35;100773.38;110705;1264;21969;-82
2023/04/20 01:31:25;;;;;;;;;;;;;;;8.50;73.44;100759.72;110677;1261;22011;-82
2023/04/20 01:34:02;;;;;;;64.00;57.20;;;;;;;8.42;73.61;100755.20;111089;1259;21984;-81
2023/04/20 01:36:39;;;;;;;64.70;57.80;;;;;;;8.44;73.74;100753.44;110872;1261;21969;-81
2023/04/20 01:39:29;;;;;;;60.30;54.10;;;;;;;8.48;73.78;100755.42;110146;1268;22030;-81
2023/04/20 01:42:07;;;;;;;64.80;56.90;;;;;;;8.50;73.74;100757.80;110919;1261;23800;-83
2023/04/20 01:44:42;;;;;;;64.40;57.60;;;;;;;8.52;73.83;100753.77;110908;1261;21967;-82
2023/04/20 01:47:30;;;;;;;66.60;59.80;;;;;;;8.54;73.67;100752.01;110628;1261;23687;-80
2023/04/20 01:50:09;;;;;;;64.20;57.30;;;;;;;8.54;73.66;100749.39;110936;1261;22394;-80
2023/04/20 01:52:45;;;;;;;65.30;58.20;;;;;;;8.55;73.75;100757.01;110892;1261;22047;-80
2023/04/20 01:55:22;;;;;;;67.30;60.20;;;;;;;8.56;73.73;100764.80;111077;1261;21837;-81
2023/04/20 01:57:58;;;;;;;69.70;62.30;;;;;;;8.57;73.68;100760.09;110949;1261;22988;-82
2023/04/20 02:00:31;;;;;;;69.90;62.80;;;;;;;8.56;73.62;100762.20;111143;1261;21978;-81
2023/04/20 02:03:08;;;;;;;67.20;60.30;;;;;;;8.56;73.63;100762.38;110978;1256;21971;-83
2023/04/20 02:05:43;;;;;;;78.20;70.50;;;;;;;8.57;73.57;100755.04;111324;1256;21959;-82
2023/04/20 02:08:20;;;;;;;78.80;70.40;;;;;;;8.58;73.68;100754.35;111449;1256;21959;-83
2023/04/20 02:10:54;;;;;;;83.50;74.90;;;;;;;8.57;73.69;100754.36;111468;1251;24052;-80
2023/04/20 02:13:28;;;;;;;89.20;79.20;;;;;;;8.56;73.71;100757.67;111530;1256;22112;-80
2023/04/20 02:16:03;;;;;;;85.00;76.30;;;;;;;8.55;73.71;100759.80;111486;1253;22860;-81
2023/04/20 02:18:34;;;;;;;87.10;77.70;;;;;;;8.53;73.72;100758.95;111365;1256;21915;-81
2023/04/20 02:21:08;;;;;;;83.50;75.10;;;;;;;8.54;73.70;100755.64;111481;1256;23583;-80
2023/04/20 02:23:55;;;;;;;86.40;77.50;;;;;;;8.53;73.78;100754.62;111389;1256;22278;-81
2023/04/20 02:26:54;;;;;;;81.70;73.30;;;;;;;8.51;73.90;100750.67;111347;1256;23559;-81
2023/04/20 02:29:31;;;;;;;84.70;75.70;;;;;;;8.49;73.91;100751.61;111374;1256;23612;-81
2023/04/20 02:32:14;;;;;;;84.00;74.50;;;;;;;8.50;73.97;100747.23;111446;1256;22002;-82
2023/04/20 02:34:57;;;;;;;81.40;72.80;;;;;;;8.50;73.97;100756.10;111414;1256;21978;-82
2023/04/20 02:37:32;;;;;;;82.10;73.20;;;;;;;8.47;73.93;100760.64;111443;1256;21982;-82
2023/04/20 02:40:17;;;;;;;84.70;75.70;;;;;;;8.46;73.86;100767.10;111330;1256;23025;-80
2023/04/20 02:42:48;;;;;;;82.70;74.00;;;;;;;8.45;73.93;100778.23;111224;1256;22230;-82
2023/04/20 02:45:19;;;;;;;85.00;75.60;;;;;;;8.42;73.83;100785.39;111527;1255;22163;-83
2023/04/20 02:47:52;;;;;;;83.70;74.70;;;;;;;8.37;73.72;100792.07;110773;1261;21998;-82
2023/04/20 02:50:25;;;;;;;89.00;76.20;;;;;;;8.29;73.75;100791.36;110387;1265;23601;-83
2023/04/20 02:53:08;;;;;;;84.40;71.70;;;;;;;8.24;74.01;100789.93;109737;1271;21980;-82
2023/04/20 02:55:39;;;;;;;87.30;75.30;;;;;;;8.23;74.24;100785.94;109744;1271;22036;-81
2023/04/20 02:58:25;;;;;;;85.90;75.10;;;;;;;8.25;74.46;100785.90;109450;1276;22447;-83
2023/04/20 03:01:18;;;;;;;91.00;77.70;;;;;;;8.26;74.44;100800.09;109377;1276;23711;-82
2023/04/20 03:03:55;;;;;;;89.80;77.00;;;;;;;8.28;74.51;100800.59;109359;1276;21999;-83
2023/04/20 03:06:39;;;;;;;85.90;71.10;;;;;;;8.28;74.48;100799.02;109403;1276;21992;-83
2023/04/20 03:09:26;;;;;;;83.70;71.40;;;;;;;8.23;74.34;100799.29;109645;1271;21968;-82
2023/04/20 03:12:23;;;;;;;89.90;77.50;;;;;;;8.19;74.51;100797.46;110467;1261;23589;-82
2023/04/20 03:15:20;;;;;;;89.90;74.80;;;;;;;8.20;74.60;100802.30;111138;1261;22380;-83
2023/04/20 03:18:05;;;;;;;92.90;75.40;;;;;;;8.20;74.73;100798.15;111621;1255;22266;-81
2023/04/20 03:20:53;;;;;;;101.00;80.50;;;;;;;8.24;74.95;100798.41;111435;1255;21968;-82
2023/04/20 03:23:42;;;;;;;;;;;;;;;;;;;;;
2023/04/20 03:26:32;;;;;;;102.50;79.50;;;;;;;8.26;74.91;100799.94;111432;1255;21974;-83
2023/04/20 03:29:15;;;;;;;100.20;76.10;;;;;;;8.26;75.03;100794.19;111210;1255;23947;-82
2023/04/20 03:31:48;;;;;;;92.60;78.00;;;;;;;8.29;75.06;100796.23;111377;1243;21970;-82
2023/04/20 03:34:41;;;;;;;95.60;75.70;;;;;;;8.31;75.06;100796.54;111330;1255;21970;-83
2023/04/20 03:37:17;;;;;;;103.60;80.50;;;;;;;8.30;75.03;100797.95;111501;1256;23767;-81
2023/04/20 03:40:09;;;;;;;103.50;80.00;;;;;;;8.30;75.07;100804.35;111358;1255;21957;-82
2023/04/20 03:42:44;;;;;;;100.60;76.40;;;;;;;8.31;75.04;100803.10;111316;1255;21935;-84
2023/04/20 03:45:16;;;;;;;112.40;80.70;;;;;;;8.32;75.06;100804.31;111266;1255;21980;-82
2023/04/20 03:47:52;;;;;;;100.90;76.60;;;;;;;8.29;75.03;100799.70;111287;1256;23024;-81
2023/04/20 03:50:23;;;;;;;100.80;75.80;;;;;;;8.27;74.99;100800.08;111177;1256;21977;-82
2023/04/20 03:53:02;;;;;;;93.30;72.80;;;;;;;8.26;75.13;100800.27;111093;1253;22037;-82
2023/04/20 03:55:35;;;;;;;92.00;74.60;;;;;;;8.24;75.17;100798.42;110456;1267;21978;-80
2023/04/20 03:58:09;;;;;;;103.30;79.40;;;;;;;8.22;75.18;100797.23;110807;1265;23835;-82
2023/04/20 04:01:12;;;;;;;;;;;;;;;8.22;75.50;100793.42;110442;1262;21963;-81
2023/04/20 04:03:53;;;;;;;107.30;80.50;;;;;;;8.17;75.87;100797.86;110322;1266;21981;-81
2023/04/20 04:06:52;;;;;;;107.60;81.60;;;;;;;8.18;75.84;100798.00;110389;1266;23041;-81
2023/04/20 04:09:34;;;;;;;110.50;83.00;;;;;;;8.23;75.87;100804.52;110368;1267;22721;-82
2023/04/20 04:12:06;;;;;;;111.50;84.30;;;;;;;8.25;75.84;100802.72;110623;1263;21965;-81
2023/04/20 04:14:45;;;;;;;103.20;81.40;;;;;;;8.29;75.79;100803.34;111445;1255;21982;-82
2023/04/20 04:17:22;;;;;;;106.60;82.70;;;;;;;8.35;75.67;100800.79;111547;1255;21955;-82
2023/04/20 04:20:01;;;;;;;98.20;77.40;;;;;;;8.34;75.77;100801.83;111621;1255;23037;-78
2023/04/20 04:22:37;;;;;;;83.90;73.00;;;;;;;8.34;75.64;100802.52;111140;1255;21968;-79
2023/04/20 04:25:28;;;;;;;91.70;74.60;;;;;;;8.30;75.45;100799.67;111096;1255;21975;-81
2023/04/20 04:28:06;;;;;;;94.80;73.70;;;;;;;8.27;75.58;100800.08;110981;1255;21961;-79
2023/04/20 04:30:43;;;;;;;92.90;72.30;;;;;;;8.29;75.71;100802.30;111302;1256;21985;-78
2023/04/20 04:33:27;;;;;;;91.30;73.60;;;;;;;8.33;75.93;100799.27;110971;1255;21959;-80
2023/04/20 04:36:02;;;;;;;91.50;73.90;;;;;;;8.38;75.99;100799.86;111098;1255;23040;-77
2023/04/20 04:38:51;;;;;;;94.20;73.60;;;;;;;8.41;75.84;100798.92;111104;1255;21964;-80
2023/04/20 04:41:28;;;;;;;90.60;72.50;;;;;;;8.41;75.84;100801.87;110744;1261;21978;-80
2023/04/20 04:44:14;;;;;;;93.80;72.60;;;;;;;8.43;75.84;100802.54;111091;1260;23576;-81
2023/04/20 04:46:50;;;;;;;84.50;72.80;;;;;;;8.45;75.77;100799.72;111126;1260;22005;-81
2023/04/20 04:49:26;;;;;;;88.00;68.40;;;;;;;8.49;75.80;100798.45;111068;1260;23062;-81
2023/04/20 04:52:04;;;;;;;85.60;69.40;;;;;;;8.55;75.90;100802.30;110796;1260;22714;-81
2023/04/20 04:54:50;;;;;;;80.50;68.70;;;;;;;8.63;76.00;100802.80;111133;1260;21971;-83
2023/04/20 04:57:20;;;;;;;81.20;64.40;;;;;;;8.72;75.98;100804.16;111162;1260;23329;-82
2023/04/20 05:00:11;;;;;;;81.40;67.40;;;;;;;8.79;75.81;100809.38;111551;1255;21957;-79
2023/04/20 05:02:47;;;;;;;77.80;67.00;;;;;;;8.87;75.79;100812.13;111630;1255;22189;-80
2023/04/20 05:05:25;;;;;;;76.40;64.30;;;;;;;8.95;75.75;100816.65;110995;1257;21973;-82
2023/04/20 05:07:57;;;;;;;70.30;62.20;;;;;;;9.02;75.64;100809.89;111198;1260;21971;-81
2023/04/20 05:10:30;;;;;;;76.70;63.40;;;;;;;9.10;75.63;100814.02;110905;1264;21974;-80
2023/04/20 05:13:00;;;;;;;79.60;65.90;;;;;;;9.17;75.47;100811.08;110751;1264;22037;-80
2023/04/20 05:15:34;;;;;;;79.10;70.60;;;;;;;9.23;75.29;100815.64;110767;1264;22043;-79
2023/04/20 05:18:09;;;;;;;81.20;67.60;;;;;;;9.25;75.05;100815.92;110688;1264;22061;-81
2023/04/20 05:20:42;;;;;;;82.90;69.30;;;;;;;9.28;74.85;100816.01;110652;1264;22719;-81
2023/04/20 05:23:16;;;;;;;77.40;65.90;;;;;;;9.36;74.93;100820.33;110950;1261;22718;-82
2023/04/20 05:25:56;;;;;;;84.60;71.20;;;;;;;9.46;74.93;100820.96;110544;1265;23041;-81
2023/04/20 05:28:40;;;;;;;94.90;78.00;;;;;;;9.56;75.03;100825.02;110807;1265;21972;-79
2023/04/20 05:31:28;;;;;;;79.00;70.30;;;;;;;9.72;74.79;100827.58;110509;1265;21976;-81
2023/04/20 05:34:19;;;;;;;75.00;65.20;;;;;;;9.79;74.79;100831.55;110566;1265;22284;-81
2023/04/20 05:37:08;;;;;;;72.00;64.10;;;;;;;9.92;74.81;100826.85;111279;1258;21949;-81
2023/04/20 05:39:44;;;;;;;68.80;61.10;;;;;;;10.09;74.78;100828.80;111241;1259;21954;-83
2023/04/20 05:42:22;;;;;;;64.50;57.60;;;;;;;10.25;74.57;100826.46;111142;1258;22432;-81
2023/04/20 05:45:08;;;;;;;61.00;53.50;;;;;;;10.43;74.29;100829.98;110910;1261;21994;-80
2023/04/20 05:48:03;;;;;;;64.70;57.10;;;;;;;10.57;73.81;100831.30;110471;1266;24351;-81
2023/04/20 05:50:58;;;;;;;65.80;57.20;;;;;;;10.68;73.39;100829.40;110555;1266;22244;-82
2023/04/20 05:53:43;;;;;;;63.00;55.90;;;;;;;10.83;73.26;100826.67;110109;1270;22422;-82
2023/04/20 05:56:19;;;;;;;66.00;57.70;;;;;;;11.03;72.87;100826.58;110200;1270;22730;-82
2023/04/20 05:59:18;;;;;;;60.70;54.10;;;;;;;11.23;72.39;100825.02;110139;1269;22201;-81
2023/04/20 06:01:55;;;;;;;61.10;54.20;;;;;;;11.44;71.94;100824.84;110084;1270;21992;-82
2023/04/20 06:04:32;;;;;;;60.00;53.60;;;;;;;11.65;71.39;100831.11;110817;1265;21966;-80
2023/04/20 06:07:06;;;;;;;56.80;51.00;;;;;;;11.88;70.96;100828.24;111051;1260;21961;-82
2023/04/20 06:09:39;;;;;;;54.70;48.40;;;;;;;12.14;70.66;100824.18;111052;1259;21960;-81
2023/04/20 06:12:12;;;;;;;53.60;47.90;;;;;;;12.47;70.44;100826.95;111084;1259;21976;-82
2023/04/20 06:14:42;;;;;;;54.50;48.80;;;;;;;12.81;69.83;100829.67;111210;1259;23054;-80
2023/04/20 06:17:13;;;;;;;55.40;48.20;;;;;;;13.14;69.04;100832.89;111047;1259;21965;-82
2023/04/20 06:19:46;;;;;;;54.60;48.80;;;;;;;13.47;67.75;100831.40;111179;1259;21970;-80
2023/04/20 06:22:19;;;;;;;56.40;50.30;;;;;;;13.74;66.60;100832.70;111065;1259;22055;-81
2023/04/20 06:25:00;;;;;;;54.40;48.50;;;;;;;13.88;65.11;100834.20;111135;1255;23824;-82
2023/04/20 06:27:38;;;;;;;51.70;46.40;;;;;;;13.95;64.03;100832.97;111396;1255;21976;-81
2023/04/20 06:30:12;;;;;;;46.60;42.10;;;;;;;14.12;64.16;100832.23;111206;1260;22119;-81
2023/04/20 06:32:43;;;;;;;47.00;42.10;;;;;;;14.36;63.60;100831.86;110679;1261;21978;-82
2023/04/20 06:35:15;;;;;;;39.30;35.40;;;;;;;14.60;62.66;100825.67;111086;1260;21994;-80
2023/04/20 06:37:49;;;;;;;36.60;32.90;;;;;;;14.91;62.29;100822.33;110981;1261;21961;-80
2023/04/20 06:40:29;;;;;;;36.10;32.40;;;;;;;15.24;61.35;100823.34;111001;1261;23618;-80
2023/04/20 06:43:20;;;;;;;35.20;31.70;;;;;;;15.42;59.66;100821.20;111153;1261;21985;-79
2023/04/20 06:46:03;;;;;;;36.10;32.40;;;;;;;15.60;59.06;100817.80;111143;1261;21933;-80
2023/04/20 06:48:40;;;;;;;33.90;30.30;;;;;;;15.94;58.15;100818.36;111405;1255;21958;-80
2023/04/20 06:51:19;;;;;;;34.70;31.00;;;;;;;16.28;57.43;100819.73;111567;1255;22024;-78
2023/04/20 06:53:55;;;;;;;34.80;31.20;;;;;;;16.54;56.03;100825.16;111508;1255;21956;-80
2023/04/20 06:56:31;;;;;;;31.30;27.80;;;;;;;16.74;55.39;100821.78;111363;1256;23617;-79
2023/04/20 06:59:16;;;;;;;32.20;28.80;;;;;;;17.05;54.87;100823.89;111552;1255;23781;-79
2023/04/20 07:02:00;;;;;;;32.10;28.60;;;;;;;17.32;53.68;100826.73;111285;1255;23018;-79
2023/04/20 07:04:35;;;;;;;35.70;31.80;;;;;;;17.43;52.62;100832.77;111202;1255;21966;-79
2023/04/20 07:07:05;;;;;;;33.50;28.90;;;;;;;17.49;52.37;100836.30;111326;1255;21955;-80
2023/04/20 07:09:34;;;;;;;26.50;23.70;;;;;;;17.56;51.41;100834.83;111475;1254;22148;-80
2023/04/20 07:12:03;;;;;;;22.60;20.30;;;;;;;17.52;50.83;100836.85;111182;1255;23767;-80
2023/04/20 07:14:33;;;;;;;23.90;21.50;;;;;;;17.63;51.15;100839.17;111332;1255;21972;-79
2023/04/20 07:17:02;;;;;;;25.00;21.90;;;;;;;17.80;50.64;100841.52;111429;1255;21999;-83
2023/04/20 07:19:36;;;;;;;25.70;23.00;;;;;;;17.87;49.87;100842.15;111594;1255;23008;-84
2023/04/20 07:22:13;;;;;;;26.50;23.90;;;;;;;17.91;49.75;100842.23;111412;1255;22430;-81
2023/04/20 07:24:45;;;;;;;24.50;21.90;;;;;;;18.09;49.63;100841.20;111595;1255;21996;-81
2023/04/20 07:27:16;;;;;;;25.20;22.50;;;;;;;18.27;48.91;100839.59;111736;1255;22024;-82
2023/04/20 07:29:48;;;;;;;24.10;21.70;;;;;;;18.35;48.62;100842.80;111318;1255;21961;-81
2023/04/20 07:32:24;;;;;;;23.30;21.00;;;;;;;18.57;48.95;100842.22;111563;1243;22031;-83
2023/04/20 07:35:04;;;;;;;22.60;20.40;;;;;;;18.88;48.65;100843.11;111280;1255;21951;-80
2023/04/20 07:37:35;;;;;;;24.40;21.90;;;;;;;19.24;48.27;100845.70;111297;1255;22503;-83
2023/04/20 07:40:11;;;;;;;21.70;19.60;;;;;;;19.51;47.63;100842.30;111254;1255;21967;-81
2023/04/20 07:43:06;;;;;;;22.20;19.80;;;;;;;19.77;46.48;100844.13;111397;1255;22006;-80
2023/04/20 07:45:40;;;;;;;21.20;19.10;;;;;;;19.69;45.21;100843.23;111524;1255;22258;-82
2023/04/20 07:48:13;;;;;;;19.10;17.20;;;;;;;19.69;45.51;100838.79;111243;1260;22960;-79
2023/04/20 07:50:49;;;;;;;18.20;16.20;;;;;;;19.85;45.48;100844.83;111121;1260;21870;-78
2023/04/20 07:53:38;;;;;;;15.90;14.10;;;;;;;19.97;45.03;100846.08;110942;1260;21963;-77
2023/04/20 07:56:32;;;;;;;15.70;13.40;;;;;;;20.01;44.07;100847.22;110991;1259;21963;-79
2023/04/20 07:59:19;;;;;;;15.40;13.50;;;;;;;19.74;42.89;100846.42;111090;1260;22445;-79
2023/04/20 08:02:01;;;;;;;14.40;12.90;;;;;;;19.30;42.90;100846.88;111081;1260;23684;-78
2023/04/20 08:04:37;;;;;;;15.60;13.70;;;;;;;18.75;43.35;100847.52;111113;1260;23034;-79
2023/04/20 08:07:17;;;;;;;19.80;13.40;;;;;;;18.24;44.38;100849.10;110916;1261;21980;-82
2023/04/20 08:10:00;;;;;;;21.00;13.40;;;;;;;17.97;45.53;100851.29;110340;1268;22935;-79
2023/04/20 08:12:38;;;;;;;13.50;12.10;;;;;;;17.75;45.92;100851.15;110056;1268;22273;-82
2023/04/20 08:15:26;;;;;;;17.60;13.10;;;;;;;17.56;46.32;100854.02;109805;1268;23041;-79
2023/04/20 08:18:12;;;;;;;14.00;11.40;;;;;;;17.25;46.18;100860.41;110233;1268;23881;-82
2023/04/20 08:20:58;;;;;;;13.00;11.70;;;;;;;16.90;46.37;100864.31;110122;1263;23041;-81
2023/04/20 08:23:54;;;;;;;14.30;10.80;;;;;;;16.50;46.63;100863.48;110151;1268;22004;-79
2023/04/20 08:26:36;;;;;;;10.40;9.30;;;;;;;16.28;47.56;100863.27;110179;1266;21931;-79
2023/04/20 08:29:23;;;;;;;11.20;9.50;;;;;;;16.13;47.51;100867.59;110667;1261;22304;-79
2023/04/20 08:31:55;;;;;;;14.30;9.60;;;;;;;15.87;47.60;100869.48;110693;1261;23693;-77
2023/04/20 08:34:29;;;;;;;11.60;8.70;;;;;;;15.78;48.20;100873.07;110870;1261;21954;-77
2023/04/20 08:37:05;;;;;;;13.00;9.90;;;;;;;15.74;48.27;100873.63;110477;1266;21974;-76
2023/04/20 08:39:39;;;;;;;12.50;9.90;;;;;;;15.62;48.00;100876.88;110375;1265;21975;-77
2023/04/20 08:42:18;;;;;;;9.90;8.90;;;;;;;15.35;47.91;100877.80;110436;1266;22051;-77
2023/04/20 08:45:01;;;;;;;13.20;9.10;;;;;;;15.05;48.16;100881.04;110238;1265;21991;-77
2023/04/20 08:47:41;;;;;;;11.60;8.80;;;;;;;14.85;48.80;100879.88;110170;1265;22170;-78
2023/04/20 08:50:19;;;;;;;12.00;10.00;;;;;;;14.70;49.11;100885.84;110007;1265;23031;-77
2023/04/20 08:52:54;;;;;;;15.00;11.30;;;;;;;14.54;49.72;100883.73;110803;1265;23221;-80
2023/04/20 08:55:28;;;;;;;15.50;11.00;;;;;;;14.46;50.20;100883.23;110794;1247;21967;-78
2023/04/20 08:58:17;;;;;;;17.90;14.70;;;;;;;14.43;50.74;100888.06;111111;1259;21965;-80
2023/04/20 09:01:10;;;;;;;15.00;11.70;;;;;;;14.39;51.36;100884.95;110083;1266;21965;-77
2023/04/20 09:03:49;;;;;;;14.00;11.70;;;;;;;14.39;51.66;100886.69;109802;1266;21972;-79
2023/04/20 09:06:33;;;;;;;13.30;12.00;;;;;;;14.30;51.66;100889.21;109726;1267;21969;-79
2023/04/20 09:09:10;;;;;;;12.10;10.90;;;;;;;14.22;52.00;100887.63;109924;1267;22401;-78
2023/04/20 09:12:01;;;;;;;15.00;11.60;;;;;;;14.20;52.39;100890.34;109393;1273;21979;-80
2023/04/20 09:14:46;;;;;;;12.40;11.10;;;;;;;14.18;52.45;100893.77;109556;1273;22070;-80
2023/04/20 09:17:36;;;;;;;12.70;10.60;;;;;;;14.16;52.82;100895.96;109320;1278;21985;-79
2023/04/20 09:20:43;;;;;;;11.70;9.70;;;;;;;14.14;52.71;100896.21;109618;1272;21995;-80
2023/04/20 09:23:26;;;;;;;12.20;8.70;;;;;;;14.11;52.81;100895.85;109995;1271;21998;-80
2023/04/20 09:26:27;;;;;;;14.80;10.80;;;;;;;14.10;52.66;100900.77;111578;1245;21963;-79
2023/04/20 09:30:31;;;;;;;12.80;10.60;;;;;;;14.02;52.74;100899.35;111663;1263;21954;-77
2023/04/20 09:34:50;;;;;;;11.70;9.60;;;;;;;13.94;53.14;100903.38;111049;1265;21956;-78
2023/04/20 09:37:45;;;;;;;10.90;9.90;;;;;;;13.86;53.35;100903.91;109909;1274;21980;-77
2023/04/20 09:41:02;;;;;;;11.60;9.80;;;;;;;13.81;53.64;100904.80;109688;1274;23708;-81
2023/04/20 09:43:39;;;;;;;15.00;11.00;;;;;;;13.83;53.84;100905.75;109375;1275;21977;-78
2023/04/20 09:46:13;;;;;;;14.30;11.60;;;;;;;13.88;53.97;100904.52;109508;1269;23759;-79
2023/04/20 09:48:46;;;;;;;13.20;10.60;;;;;;;13.93;54.08;100903.08;109536;1274;23519;-78
2023/04/20 09:51:34;;;;;;;11.90;10.80;;;;;;;13.98;54.06;100901.13;109539;1272;22518;-79
2023/04/20 09:54:18;;;;;;;18.20;12.10;;;;;;;13.98;53.98;100901.28;109870;1270;23151;-77
2023/04/20 09:57:03;;;;;;;15.60;10.90;;;;;;;13.95;54.18;100902.27;109550;1272;22208;-78
2023/04/20 10:00:09;;;;;;;14.70;12.00;;;;;;;13.97;54.62;100899.95;109872;1270;21984;-79
2023/04/20 10:02:43;;;;;;;15.00;11.50;;;;;;;14.04;54.96;100899.09;109920;1271;21973;-79
2023/04/20 10:05:39;;;;;;;12.80;11.40;;;;;;;14.13;54.95;100899.58;110461;1263;21982;-79
2023/04/20 10:08:10;;;;;;;16.10;13.20;;;;;;;14.21;54.86;100902.71;110695;1263;21963;-78
2023/04/20 10:10:51;;;;;;;14.80;13.30;;;;;;;14.30;54.73;100903.41;110410;1263;21979;-78
2023/04/20 10:13:37;;;;;;;14.90;13.40;;;;;;;14.32;54.69;100901.90;110552;1263;21978;-77
2023/04/20 10:16:21;;;;;;;15.20;13.70;;;;;;;14.40;54.80;100898.19;110497;1263;21977;-79
2023/04/20 10:19:04;;;;;;;;;;;;;;;14.49;54.68;100897.60;110152;1263;21952;-77
2023/04/20 10:21:53;;;;;;;17.30;12.10;;;;;;;14.49;54.60;100894.86;110530;1263;22059;-76
2023/04/20 10:24:33;;;;;;;23.30;13.70;;;;;;;14.60;54.87;100889.98;111412;1263;21975;-79
2023/04/20 10:27:26;;;;;;;16.60;12.60;;;;;;;14.71;54.44;100890.17;110850;1263;21974;-75
2023/04/20 10:30:18;;;;;;;14.00;12.60;;;;;;;14.79;54.44;100894.88;110606;1261;21979;-76
2023/04/20 10:33:10;;;;;;;16.70;13.40;;;;;;;14.97;54.70;100890.03;110897;1265;21971;-79
2023/04/20 10:35:58;;;;;;;16.10;13.40;;;;;;;15.20;54.58;100890.83;110728;1265;21981;-77
2023/04/20 10:38:37;;;;;;;18.80;13.30;;;;;;;15.44;54.29;100891.79;110307;1265;21973;-80
2023/04/20 10:41:51;;;;;;;16.30;14.50;;;;;;;15.69;53.87;100893.51;110642;1256;22062;-80
2023/04/20 10:44:56;;;;;;;24.00;13.70;;;;;;;15.85;53.16;100889.94;110694;1265;21969;-79
2023/04/20 10:47:39;;;;;;;17.50;13.10;;;;;;;16.01;52.93;100889.64;110653;1263;21990;-78
2023/04/20 10:50:18;;;;;;;15.90;13.10;;;;;;;16.18;52.62;100889.77;110655;1263;23606;-78
2023/04/20 10:52:59;;;;;;;16.30;13.10;;;;;;;16.36;52.26;100887.41;111058;1263;23070;-78
2023/04/20 10:55:30;;;;;;;15.00;13.50;;;;;;;16.49;51.77;100883.92;110929;1263;22581;-79
2023/04/20 10:58:07;;;;;;;13.80;12.40;;;;;;;16.52;51.08;100880.61;110388;1265;22314;-78
2023/04/20 11:00:38;;;;;;;16.80;12.30;;;;;;;16.47;50.62;100878.75;110299;1265;21972;-79
2023/04/20 11:03:14;;;;;;;17.00;11.70;;;;;;;16.43;50.52;100879.36;109577;1270;23627;-78
2023/04/20 11:06:03;;;;;;;15.30;12.00;;;;;;;16.35;50.45;100878.19;109967;1269;21980;-81
2023/04/20 11:08:42;;;;;;;16.00;12.30;;;;;;;16.24;50.47;100874.88;110129;1267;22003;-80
2023/04/20 11:11:30;;;;;;;15.50;13.40;;;;;;;16.20;50.63;100876.88;109792;1269;21988;-83
2023/04/20 11:14:18;;;;;;;19.00;13.30;;;;;;;16.15;50.81;100877.85;109910;1274;22001;-82
2023/04/20 11:16:56;;;;;;;14.40;11.50;;;;;;;16.07;50.78;100876.84;109832;1274;21849;-82
2023/04/20 11:19:36;;;;;;;15.00;10.60;;;;;;;16.01;50.79;100876.63;109716;1273;22002;-80
2023/04/20 11:22:24;;;;;;;18.40;9.10;;;;;;;15.94;51.00;100874.19;109890;1273;22749;-79
2023/04/20 11:25:17;;;;;;;11.00;6.90;;;;;;;15.97;51.23;100874.52;109746;1265;22639;-79
2023/04/20 11:28:10;;;;;;;14.40;6.80;;;;;;;16.08;50.97;100872.02;109388;1273;22455;-79
2023/04/20 11:30:41;;;;;;;12.20;6.30;;;;;;;16.19;50.21;100873.59;109064;1276;23829;-80
2023/04/20 11:33:39;;;;;;;11.00;6.80;;;;;;;16.30;49.83;100873.17;109379;1276;22100;-80
2023/04/20 11:36:28;;;;;;;9.30;6.10;;;;;;;16.42;49.22;100874.65;109344;1276;21986;-80
2023/04/20 11:39:12;;;;;;;11.60;6.10;;;;;;;16.56;49.04;100872.14;109100;1280;23612;-80
2023/04/20 11:41:51;;;;;;;14.30;6.90;;;;;;;16.65;48.72;100871.08;109752;1274;23634;-82
2023/04/20 11:44:29;;;;;;;11.00;6.50;;;;;;;16.80;48.66;100870.48;109519;1274;22529;-82
2023/04/20 11:47:44;;;;;;;10.10;6.00;;;;;;;16.92;48.03;100870.34;109648;1274;23734;-82
2023/04/20 11:50:43;;;;;;;13.20;6.60;;;;;;;17.08;48.12;100866.27;109758;1275;22037;-81
2023/04/20 11:53:22;;;;;;;12.60;6.00;;;;;;;17.19;47.30;100859.50;109631;1274;21957;-80
2023/04/20 11:56:09;;;;;;;9.40;6.10;;;;;;;17.20;46.93;100854.88;109804;1272;22001;-80
2023/04/20 11:58:55;;;;;;;9.20;6.00;;;;;;;17.25;47.02;100860.57;110701;1265;22039;-82
2023/04/20 12:01:35;;;;;;;14.00;5.90;;;;;;;17.39;46.88;100861.36;110637;1265;21985;-82
2023/04/20 12:04:14;;;;;;;16.10;6.10;;;;;;;17.54;46.91;100855.75;110414;1265;23727;-81
2023/04/20 12:07:12;;;;;;;10.30;5.50;;;;;;;17.66;46.37;100849.77;110834;1265;21936;-81
2023/04/20 12:09:46;;;;;;;14.90;6.00;;;;;;;17.67;45.85;100851.08;110649;1266;22988;-84
2023/04/20 12:12:25;;;;;;;15.50;5.70;;;;;;;17.67;46.10;100849.70;110377;1266;21970;-81
2023/04/20 12:15:16;;;;;;;13.90;6.50;;;;;;;17.76;46.22;100845.30;110529;1265;21981;-79
2023/04/20 12:18:10;;;;;;;;;;;;;;;;;;;;;
2023/04/20 12:20:53;;;;;;;10.30;5.40;;;;;;;17.85;45.55;100842.09;110954;1263;21970;-82
2023/04/20 12:23:35;;;;;;;11.80;5.70;;;;;;;17.92;45.61;100835.17;110791;1264;22003;-80
2023/04/20 12:26:20;;;;;;;10.10;5.60;;;;;;;18.00;45.27;100824.81;110275;1262;361315;-81
2023/04/20 12:29:20;;;;;;;15.30;6.40;;;;;;;17.98;45.08;100827.95;110663;1262;23056;-80
2023/04/20 12:32:31;;;;;;;16.00;5.50;;;;;;;17.94;45.02;100830.64;110978;1264;21988;-82